Time;durP1;ratioP1;P1;durP2;ratioP2;P2;SDS_P1;SDS_P2;PMS_P1;PMS_P2;Temp;Humidity;BMP_temperature;BMP_pressure;BME280_temperature;BME280_humidity;BME280_pressure;Samples;Min_cycle;Max_cycle;Signal;HPM_P1;HPM_P2
2023/02/11 00:01:29;;;;;;;35.53;16.70;;;;;;;;;;4992782;28;20415;-72
2023/02/11 00:03:55;;;;;;;30.98;16.83;;;;;;;;;;5007318;28;20418;-73
2023/02/11 00:06:20;;;;;;;32.45;18.63;;;;;;;;;;4994863;28;20109;-72
2023/02/11 00:08:46;;;;;;;35.50;17.70;;;;;;;;;;4993771;28;20121;-74
2023/02/11 00:11:13;;;;;;;30.98;16.13;;;;;;;;;;4996299;28;20492;-73
2023/02/11 00:13:38;;;;;;;34.75;17.58;;;;;;;;;;4990696;28;20030;-73
2023/02/11 00:16:07;;;;;;;34.33;18.20;;;;;;;;;;4988280;28;20023;-74
2023/02/11 00:18:33;;;;;;;31.95;18.67;;;;;;;;;;4992908;28;20297;-73
2023/02/11 00:20:58;;;;;;;34.03;18.00;;;;;;;;;;5002640;28;20214;-74
2023/02/11 00:23:23;;;;;;;35.23;16.90;;;;;;;;;;4995141;28;20022;-74
2023/02/11 00:25:48;;;;;;;29.90;16.40;;;;;;;;;;4998051;28;20283;-73
2023/02/11 00:28:16;;;;;;;40.77;18.87;;;;;;;;;;4995753;28;20265;-80
2023/02/11 00:30:41;;;;;;;31.70;16.35;;;;;;;;;;4994489;28;20287;-73
2023/02/11 00:33:07;;;;;;;33.07;16.77;;;;;;;;;;4996953;28;20101;-73
2023/02/11 00:35:32;;;;;;;31.88;17.77;;;;;;;;;;5003228;28;20352;-72
2023/02/11 00:37:57;;;;;;;30.00;15.85;;;;;;;;;;5007764;28;20065;-75
2023/02/11 00:40:23;;;;;;;36.20;17.43;;;;;;;;;;4990870;28;20087;-73
2023/02/11 00:42:48;;;;;;;35.92;17.48;;;;;;;;;;4995814;28;20269;-71
2023/02/11 00:45:13;;;;;;;30.50;16.90;;;;;;;;;;4997178;28;20022;-73
2023/02/11 00:47:38;;;;;;;33.07;17.47;;;;;;;;;;5002003;28;20728;-80
2023/02/11 00:50:04;;;;;;;31.33;16.27;;;;;;;;;;4998752;28;20882;-81
2023/02/11 00:52:30;;;;;;;31.65;16.27;;;;;;;;;;5012876;28;20307;-80
2023/02/11 00:54:55;;;;;;;33.38;16.48;;;;;;;;;;4996203;28;20034;-81
2023/02/11 00:57:20;;;;;;;32.38;16.02;;;;;;;;;;4999201;28;20025;-79
2023/02/11 00:59:45;;;;;;;33.22;17.65;;;;;;;;;;4999565;28;20030;-80
2023/02/11 01:02:10;;;;;;;36.63;18.00;;;;;;;;;;5002880;28;20034;-79
2023/02/11 01:04:36;;;;;;;32.40;16.20;;;;;;;;;;5004578;28;20272;-74
2023/02/11 01:07:01;;;;;;;31.35;16.83;;;;;;;;;;4995710;28;20331;-78
2023/02/11 01:09:26;;;;;;;28.42;15.30;;;;;;;;;;4993142;28;20065;-77
2023/02/11 01:11:51;;;;;;;31.40;15.30;;;;;;;;;;4998871;28;20021;-76
2023/02/11 01:14:17;;;;;;;30.15;14.98;;;;;;;;;;5007229;28;20021;-78
2023/02/11 01:16:42;;;;;;;29.52;15.88;;;;;;;;;;4995814;28;20444;-78
2023/02/11 01:19:07;;;;;;;30.33;16.45;;;;;;;;;;4994282;28;20034;-77
2023/02/11 01:21:33;;;;;;;33.45;16.33;;;;;;;;;;4992734;28;20165;-70
2023/02/11 01:23:58;;;;;;;31.40;16.05;;;;;;;;;;5006822;28;20339;-81
2023/02/11 01:26:23;;;;;;;31.48;15.95;;;;;;;;;;4996173;28;20462;-69
2023/02/11 01:28:48;;;;;;;31.95;15.48;;;;;;;;;;4996136;28;20046;-70
2023/02/11 01:31:14;;;;;;;30.93;16.97;;;;;;;;;;4991845;28;20034;-72
2023/02/11 01:33:39;;;;;;;26.33;14.77;;;;;;;;;;5001964;28;20330;-69
2023/02/11 01:36:04;;;;;;;31.35;16.38;;;;;;;;;;4998283;28;20266;-68
2023/02/11 01:38:31;;;;;;;34.15;16.33;;;;;;;;;;5000491;28;20517;-71
2023/02/11 01:40:57;;;;;;;32.42;15.93;;;;;;;;;;4994275;28;20397;-81
2023/02/11 01:43:24;;;;;;;32.92;16.15;;;;;;;;;;4999178;28;20026;-75
2023/02/11 01:45:56;;;;;;;28.77;16.50;;;;;;;;;;4998140;28;20030;-73
2023/02/11 01:48:24;;;;;;;34.05;16.63;;;;;;;;;;5000274;28;20033;-71
2023/02/11 01:50:51;;;;;;;31.15;17.67;;;;;;;;;;4994719;28;20472;-75
2023/02/11 01:59:07;;;;;;;36.38;16.02;;;;;;;;;;4958991;28;20022;-78
2023/02/11 02:01:33;;;;;;;30.92;15.85;;;;;;;;;;4988660;28;20045;-77
2023/02/11 02:03:59;;;;;;;32.28;16.67;;;;;;;;;;5008271;28;20040;-76
2023/02/11 02:06:28;;;;;;;31.02;15.93;;;;;;;;;;4997013;28;20424;-78
2023/02/11 02:08:56;;;;;;;31.60;16.07;;;;;;;;;;4985589;28;20053;-78
2023/02/11 02:11:21;;;;;;;31.98;16.85;;;;;;;;;;4991984;28;20097;-77
2023/02/11 02:13:48;;;;;;;32.33;17.50;;;;;;;;;;4999485;28;20105;-78
2023/02/11 02:16:15;;;;;;;31.63;16.75;;;;;;;;;;4998040;28;20473;-70
2023/02/11 02:18:47;;;;;;;32.78;17.58;;;;;;;;;;4994350;28;20029;-69
2023/02/11 02:21:15;;;;;;;29.25;15.85;;;;;;;;;;4985867;28;20026;-68
2023/02/11 02:23:59;;;;;;;30.33;15.75;;;;;;;;;;5002446;28;20037;-67
2023/02/11 02:26:27;;;;;;;27.77;14.70;;;;;;;;;;4990946;28;20019;-68
2023/02/11 02:29:11;;;;;;;31.58;15.85;;;;;;;;;;5014818;28;20049;-68
2023/02/11 02:31:36;;;;;;;31.63;16.40;;;;;;;;;;4990993;28;20023;-70
2023/02/11 02:34:05;;;;;;;31.37;16.77;;;;;;;;;;5004606;28;20668;-66
2023/02/11 02:36:30;;;;;;;29.73;18.42;;;;;;;;;;4996772;28;20030;-80
2023/02/11 02:38:55;;;;;;;29.93;15.43;;;;;;;;;;5000939;28;20061;-78
2023/02/11 02:41:23;;;;;;;30.20;17.10;;;;;;;;;;4986375;28;20803;-79
2023/02/11 02:43:50;;;;;;;34.90;17.30;;;;;;;;;;4991821;28;20272;-80
2023/02/11 02:46:15;;;;;;;25.85;16.27;;;;;;;;;;4989804;28;20027;-79
2023/02/11 02:48:40;;;;;;;30.48;16.02;;;;;;;;;;4989491;28;20019;-78
2023/02/11 02:51:11;;;;;;;30.73;16.30;;;;;;;;;;4991263;28;20033;-78
2023/02/11 02:53:43;;;;;;;29.98;15.73;;;;;;;;;;4990505;28;20026;-70
2023/02/11 02:56:29;;;;;;;32.25;16.42;;;;;;;;;;4988562;28;20504;-72
2023/02/11 02:59:07;;;;;;;33.97;16.83;;;;;;;;;;4990118;28;20129;-69
2023/02/11 03:01:46;;;;;;;25.10;13.65;;;;;;;;;;4998807;28;20393;-70
2023/02/11 03:04:30;;;;;;;31.58;15.25;;;;;;;;;;4990377;28;20083;-69
2023/02/11 03:07:04;;;;;;;32.17;16.05;;;;;;;;;;4989651;28;20030;-69
2023/02/11 03:09:32;;;;;;;26.20;15.27;;;;;;;;;;4979352;28;20030;-70
2023/02/11 03:11:59;;;;;;;33.72;17.50;;;;;;;;;;4989502;28;20018;-73
2023/02/11 03:14:25;;;;;;;28.63;16.02;;;;;;;;;;4990725;28;20026;-75
2023/02/11 03:16:52;;;;;;;34.08;16.02;;;;;;;;;;4989641;28;20100;-69
2023/02/11 03:19:21;;;;;;;30.05;14.52;;;;;;;;;;4990846;28;20033;-67
2023/02/11 03:21:48;;;;;;;28.08;15.05;;;;;;;;;;4990395;28;20044;-71
2023/02/11 03:24:23;;;;;;;34.80;17.27;;;;;;;;;;4990746;28;20033;-69
2023/02/11 03:26:50;;;;;;;33.95;15.90;;;;;;;;;;4986429;28;20515;-67
2023/02/11 03:29:18;;;;;;;32.80;15.18;;;;;;;;;;4987747;28;20045;-69
2023/02/11 03:31:48;;;;;;;29.25;14.43;;;;;;;;;;4992184;28;20026;-74
2023/02/11 03:34:28;;;;;;;29.17;14.90;;;;;;;;;;4995677;28;20030;-70
2023/02/11 03:36:58;;;;;;;29.75;15.48;;;;;;;;;;4988082;28;20500;-70
2023/02/11 03:39:23;;;;;;;;;;;;;;;;;;4989330;28;20054;-70
2023/02/11 03:41:50;;;;;;;30.58;14.15;;;;;;;;;;5003484;28;20423;-68
2023/02/11 03:44:16;;;;;;;29.48;16.13;;;;;;;;;;4990417;28;20034;-69
2023/02/11 03:46:43;;;;;;;33.92;16.38;;;;;;;;;;4989940;28;20101;-69
2023/02/11 03:49:11;;;;;;;28.45;15.35;;;;;;;;;;4986706;28;20030;-72
2023/02/11 03:51:37;;;;;;;27.48;16.65;;;;;;;;;;4985537;28;20057;-74
2023/02/11 03:54:04;;;;;;;27.15;14.90;;;;;;;;;;4987855;28;20053;-76
2023/02/11 03:56:32;;;;;;;32.45;16.23;;;;;;;;;;4986561;28;20038;-76
2023/02/11 03:58:57;;;;;;;25.38;14.25;;;;;;;;;;4986657;28;20091;-76
2023/02/11 04:01:22;;;;;;;31.98;14.48;;;;;;;;;;4988598;28;20054;-76
2023/02/11 04:03:48;;;;;;;27.52;14.32;;;;;;;;;;4992214;28;20018;-77
2023/02/11 04:06:13;;;;;;;28.70;15.15;;;;;;;;;;4993443;28;20038;-75
2023/02/11 04:08:38;;;;;;;26.75;13.13;;;;;;;;;;4989729;28;20494;-72
2023/02/11 04:11:03;;;;;;;29.45;15.15;;;;;;;;;;4988177;28;20108;-74
2023/02/11 04:13:28;;;;;;;25.83;12.63;;;;;;;;;;4993627;28;20358;-71
2023/02/11 04:15:54;;;;;;;34.80;16.27;;;;;;;;;;4989727;28;20744;-74
2023/02/11 04:18:19;;;;;;;30.75;16.30;;;;;;;;;;4987359;28;20014;-74
2023/02/11 04:20:44;;;;;;;32.37;16.40;;;;;;;;;;4988660;28;20616;-74
2023/02/11 04:23:09;;;;;;;30.00;16.20;;;;;;;;;;4988888;28;20309;-74
2023/02/11 04:25:35;;;;;;;30.93;16.53;;;;;;;;;;4988791;28;20270;-80
2023/02/11 04:28:00;;;;;;;32.17;16.10;;;;;;;;;;4989506;28;20261;-76
2023/02/11 04:30:25;;;;;;;31.23;15.98;;;;;;;;;;4988509;28;20482;-74
2023/02/11 04:32:53;;;;;;;35.40;16.10;;;;;;;;;;4989332;28;20030;-73
2023/02/11 04:35:18;;;;;;;27.95;14.13;;;;;;;;;;4990646;28;20096;-73
2023/02/11 04:37:43;;;;;;;30.00;15.50;;;;;;;;;;4993566;28;20501;-73
2023/02/11 04:40:08;;;;;;;31.23;14.70;;;;;;;;;;4987903;28;20033;-73
2023/02/11 04:42:34;;;;;;;31.73;15.77;;;;;;;;;;4988958;28;20285;-74
2023/02/11 04:44:59;;;;;;;29.97;15.63;;;;;;;;;;4989641;28;20433;-79
2023/02/11 04:47:24;;;;;;;32.43;16.20;;;;;;;;;;4989712;28;20772;-80
2023/02/11 04:49:49;;;;;;;26.57;14.13;;;;;;;;;;4986911;28;20753;-81
2023/02/11 04:52:15;;;;;;;26.77;14.43;;;;;;;;;;4989725;28;20609;-81
2023/02/11 04:54:40;;;;;;;29.63;16.27;;;;;;;;;;4990167;28;20745;-82
2023/02/11 04:57:05;;;;;;;32.20;15.02;;;;;;;;;;4988647;28;20034;-80
2023/02/11 04:59:30;;;;;;;30.92;15.95;;;;;;;;;;4987490;28;20023;-80
2023/02/11 05:01:56;;;;;;;30.20;15.45;;;;;;;;;;4988887;28;20026;-77
2023/02/11 05:04:21;;;;;;;29.08;14.93;;;;;;;;;;4989104;28;20026;-74
2023/02/11 05:06:46;;;;;;;26.88;13.82;;;;;;;;;;4988246;28;20037;-72
2023/02/11 05:09:12;;;;;;;31.60;16.37;;;;;;;;;;5000115;28;20033;-72
2023/02/11 05:11:38;;;;;;;30.42;15.68;;;;;;;;;;4984815;28;20376;-72
2023/02/11 05:14:04;;;;;;;27.83;14.65;;;;;;;;;;4988326;28;20065;-72
2023/02/11 05:16:29;;;;;;;27.20;14.88;;;;;;;;;;4988767;28;20027;-71
2023/02/11 05:18:54;;;;;;;26.63;16.10;;;;;;;;;;4988551;28;20105;-71
2023/02/11 05:21:20;;;;;;;29.17;15.52;;;;;;;;;;4987321;28;20543;-75
2023/02/11 05:23:45;;;;;;;33.50;16.85;;;;;;;;;;4987818;28;20056;-67
2023/02/11 05:26:11;;;;;;;35.10;16.48;;;;;;;;;;4986778;28;20385;-67
2023/02/11 05:28:36;;;;;;;29.02;16.60;;;;;;;;;;4988095;28;20575;-68
2023/02/11 05:31:02;;;;;;;30.73;15.98;;;;;;;;;;4991614;28;20069;-69
2023/02/11 05:33:27;;;;;;;31.80;16.40;;;;;;;;;;4986669;28;20105;-68
2023/02/11 05:35:57;;;;;;;30.75;16.40;;;;;;;;;;4991817;28;20019;-68
2023/02/11 05:38:22;;;;;;;;;;;;;;;;;;4992355;28;20536;-69
2023/02/11 05:40:47;;;;;;;29.98;16.10;;;;;;;;;;4997351;28;20224;-73
2023/02/11 05:43:12;;;;;;;30.65;15.00;;;;;;;;;;4993723;28;20022;-78
2023/02/11 05:45:38;;;;;;;27.70;16.33;;;;;;;;;;4991161;28;20092;-78
2023/02/11 05:48:03;;;;;;;29.70;16.00;;;;;;;;;;4990397;28;20037;-77
2023/02/11 05:50:28;;;;;;;31.10;15.75;;;;;;;;;;4990775;28;20281;-78
2023/02/11 05:52:53;;;;;;;28.98;15.75;;;;;;;;;;4989332;28;20034;-78
2023/02/11 05:55:19;;;;;;;30.48;15.38;;;;;;;;;;4990909;28;20153;-78
2023/02/11 05:57:44;;;;;;;31.02;15.57;;;;;;;;;;4974170;28;20015;-74
2023/02/11 06:00:10;;;;;;;31.50;15.90;;;;;;;;;;4992126;28;20030;-79
2023/02/11 06:02:35;;;;;;;27.95;14.93;;;;;;;;;;4991304;28;20041;-67
2023/02/11 06:05:00;;;;;;;31.47;15.70;;;;;;;;;;5000447;28;20033;-68
2023/02/11 06:07:25;;;;;;;29.52;14.35;;;;;;;;;;4990392;28;20270;-67
2023/02/11 06:09:51;;;;;;;26.92;13.98;;;;;;;;;;4991215;28;20112;-67
2023/02/11 06:12:16;;;;;;;32.20;16.27;;;;;;;;;;4994477;28;20453;-69
2023/02/11 06:14:41;;;;;;;28.67;15.03;;;;;;;;;;4995750;28;20026;-68
2023/02/11 06:17:06;;;;;;;27.17;15.53;;;;;;;;;;4991385;28;20369;-79
2023/02/11 06:19:32;;;;;;;27.75;13.95;;;;;;;;;;4991717;28;20688;-73
2023/02/11 06:21:57;;;;;;;25.02;14.45;;;;;;;;;;4989790;28;20022;-75
2023/02/11 06:24:22;;;;;;;25.63;14.53;;;;;;;;;;4988596;28;20096;-73
2023/02/11 06:26:48;;;;;;;29.02;15.85;;;;;;;;;;4982562;28;20281;-74
2023/02/11 06:29:13;;;;;;;25.90;14.38;;;;;;;;;;4989702;28;20014;-75
2023/02/11 06:31:39;;;;;;;29.63;15.93;;;;;;;;;;4990414;28;20032;-74
2023/02/11 06:34:05;;;;;;;25.08;14.05;;;;;;;;;;4989334;28;20466;-73
2023/02/11 06:36:30;;;;;;;29.77;16.38;;;;;;;;;;4991434;28;20105;-73
2023/02/11 06:38:55;;;;;;;27.53;14.97;;;;;;;;;;4991025;28;20049;-72
2023/02/11 06:41:20;;;;;;;28.60;15.25;;;;;;;;;;4989408;28;20305;-74
2023/02/11 06:43:46;;;;;;;26.15;14.07;;;;;;;;;;4991841;28;20013;-74
2023/02/11 06:46:11;;;;;;;25.73;13.63;;;;;;;;;;4997102;28;20022;-73
2023/02/11 06:48:37;;;;;;;28.05;15.32;;;;;;;;;;4988335;28;20438;-74
2023/02/11 06:51:05;;;;;;;27.95;14.75;;;;;;;;;;4989856;28;20026;-73
2023/02/11 06:53:33;;;;;;;24.40;13.93;;;;;;;;;;4989839;28;20022;-76
2023/02/11 06:56:03;;;;;;;23.98;14.43;;;;;;;;;;4989842;28;20061;-77
2023/02/11 06:58:28;;;;;;;24.65;13.98;;;;;;;;;;4987964;28;20092;-78
2023/02/11 07:00:54;;;;;;;23.40;13.25;;;;;;;;;;4997180;28;20485;-76
2023/02/11 07:03:23;;;;;;;24.90;14.55;;;;;;;;;;4968858;28;20035;-77
2023/02/11 07:05:50;;;;;;;26.75;15.95;;;;;;;;;;4968608;28;20046;-78
2023/02/11 07:08:16;;;;;;;26.48;13.35;;;;;;;;;;4968087;28;20042;-79
2023/02/11 07:10:48;;;;;;;30.55;16.17;;;;;;;;;;4937811;28;20129;-79
2023/02/11 07:13:13;;;;;;;26.27;14.77;;;;;;;;;;4938279;28;20154;-73
2023/02/11 07:15:38;;;;;;;24.27;14.10;;;;;;;;;;4970529;28;20102;-68
2023/02/11 07:18:03;;;;;;;25.23;15.27;;;;;;;;;;4967803;28;20473;-67
2023/02/11 07:20:29;;;;;;;30.67;14.82;;;;;;;;;;4964999;28;20027;-69
2023/02/11 07:22:54;;;;;;;25.25;14.05;;;;;;;;;;4964007;28;20114;-68
2023/02/11 07:25:19;;;;;;;25.75;14.43;;;;;;;;;;4967992;28;20046;-69
2023/02/11 07:27:44;;;;;;;29.52;14.23;;;;;;;;;;4967503;28;20026;-69
2023/02/11 07:30:10;;;;;;;26.52;14.65;;;;;;;;;;4967755;28;20041;-78
2023/02/11 07:32:35;;;;;;;25.60;15.00;;;;;;;;;;4951423;28;20030;-79
2023/02/11 07:35:00;;;;;;;29.30;15.73;;;;;;;;;;4980189;28;20035;-78
2023/02/11 07:37:27;;;;;;;32.70;15.27;;;;;;;;;;4990183;28;20085;-79
2023/02/11 07:39:52;;;;;;;26.50;15.52;;;;;;;;;;4982842;28;20351;-78
2023/02/11 07:42:17;;;;;;;27.27;14.90;;;;;;;;;;4988951;28;20026;-79
2023/02/11 07:44:43;;;;;;;27.50;15.43;;;;;;;;;;4988909;28;20021;-78
2023/02/11 07:47:08;;;;;;;28.52;13.63;;;;;;;;;;4968244;28;20041;-78
2023/02/11 07:49:33;;;;;;;25.48;14.82;;;;;;;;;;4975969;28;20478;-80
2023/02/11 07:51:58;;;;;;;28.53;14.63;;;;;;;;;;4966061;28;20466;-78
2023/02/11 07:54:24;;;;;;;33.13;14.83;;;;;;;;;;4966605;28;20473;-78
2023/02/11 07:56:49;;;;;;;29.42;13.88;;;;;;;;;;4952592;28;20293;-79
2023/02/11 07:59:14;;;;;;;34.90;13.73;;;;;;;;;;4956163;28;20057;-78
2023/02/11 08:01:40;;;;;;;30.75;14.60;;;;;;;;;;4967700;28;20297;-78
2023/02/11 08:04:05;;;;;;;26.17;14.95;;;;;;;;;;4966550;28;20026;-79
2023/02/11 08:06:32;;;;;;;26.15;14.40;;;;;;;;;;4967752;28;20402;-81
2023/02/11 08:08:57;;;;;;;32.30;16.45;;;;;;;;;;4967202;28;20034;-69
2023/02/11 08:11:24;;;;;;;29.67;14.50;;;;;;;;;;4967631;28;20783;-73
2023/02/11 08:13:50;;;;;;;27.92;14.48;;;;;;;;;;4966926;28;20478;-75
2023/02/11 08:16:17;;;;;;;26.85;14.95;;;;;;;;;;4973332;28;20046;-72
2023/02/11 08:18:43;;;;;;;28.58;15.43;;;;;;;;;;4986809;28;20081;-73
2023/02/11 08:21:09;;;;;;;28.60;14.30;;;;;;;;;;4997353;28;20265;-71
2023/02/11 08:23:37;;;;;;;27.33;14.88;;;;;;;;;;4988345;28;20080;-72
2023/02/11 08:26:04;;;;;;;27.87;14.40;;;;;;;;;;4989886;28;20194;-78
2023/02/11 08:28:29;;;;;;;27.83;15.40;;;;;;;;;;4987601;28;20265;-67
2023/02/11 08:30:54;;;;;;;23.60;14.10;;;;;;;;;;4987079;28;20023;-67
2023/02/11 08:33:20;;;;;;;24.80;14.48;;;;;;;;;;4988819;28;20019;-68
2023/02/11 08:35:45;;;;;;;26.10;14.47;;;;;;;;;;4989423;28;20524;-68
2023/02/11 08:38:10;;;;;;;25.07;14.97;;;;;;;;;;4990326;28;20780;-68
2023/02/11 08:40:35;;;;;;;24.90;15.00;;;;;;;;;;4993925;28;20744;-66
2023/02/11 08:43:00;;;;;;;23.83;13.87;;;;;;;;;;4988128;28;20823;-73
2023/02/11 08:45:26;;;;;;;27.10;14.45;;;;;;;;;;4989935;28;20262;-73
2023/02/11 08:47:51;;;;;;;22.10;13.15;;;;;;;;;;4989591;28;20022;-74
2023/02/11 08:50:16;;;;;;;25.40;14.18;;;;;;;;;;4985060;28;20585;-73
2023/02/11 08:52:42;;;;;;;23.37;13.90;;;;;;;;;;4995678;28;20030;-73
2023/02/11 08:55:07;;;;;;;22.33;13.23;;;;;;;;;;4991790;28;20269;-73
2023/02/11 08:57:33;;;;;;;22.43;13.53;;;;;;;;;;4987011;28;20026;-72
2023/02/11 08:59:58;;;;;;;23.77;12.57;;;;;;;;;;4989197;28;20756;-73
2023/02/11 09:02:23;;;;;;;26.75;13.35;;;;;;;;;;4988843;28;20765;-74
2023/02/11 09:04:48;;;;;;;24.08;12.95;;;;;;;;;;4991621;28;20026;-76
2023/02/11 09:07:14;;;;;;;24.40;13.43;;;;;;;;;;4992715;28;20561;-79
2023/02/11 09:09:39;;;;;;;21.13;12.27;;;;;;;;;;4995834;28;20816;-78
2023/02/11 09:12:04;;;;;;;22.23;12.82;;;;;;;;;;4994137;28;20076;-78
2023/02/11 09:14:32;;;;;;;24.27;13.00;;;;;;;;;;4994750;28;20109;-79
2023/02/11 09:16:58;;;;;;;19.33;11.50;;;;;;;;;;4994038;28;20509;-79
2023/02/11 09:19:23;;;;;;;24.48;13.85;;;;;;;;;;4994328;28;20076;-75
2023/02/11 09:21:48;;;;;;;20.02;12.25;;;;;;;;;;4991723;28;20486;-73
2023/02/11 09:24:14;;;;;;;20.07;11.83;;;;;;;;;;4996618;28;20309;-74
2023/02/11 09:26:40;;;;;;;23.15;13.55;;;;;;;;;;4995809;28;20778;-74
2023/02/11 09:29:05;;;;;;;23.08;12.05;;;;;;;;;;4991358;28;20072;-74
2023/02/11 09:31:31;;;;;;;22.27;12.90;;;;;;;;;;4992458;28;20509;-74
2023/02/11 09:33:58;;;;;;;18.58;11.10;;;;;;;;;;4992256;28;20046;-74
2023/02/11 09:36:28;;;;;;;18.58;11.82;;;;;;;;;;4992518;28;20026;-75
2023/02/11 09:38:54;;;;;;;22.10;12.82;;;;;;;;;;4991966;28;20581;-80
2023/02/11 09:41:22;;;;;;;21.20;12.02;;;;;;;;;;4992550;28;20117;-81
2023/02/11 09:43:48;;;;;;;20.65;11.10;;;;;;;;;;4992001;28;20018;-80
2023/02/11 09:46:15;;;;;;;20.67;10.82;;;;;;;;;;4990955;28;20014;-81
2023/02/11 09:48:41;;;;;;;17.88;11.10;;;;;;;;;;4990029;28;20040;-80
2023/02/11 09:51:14;;;;;;;19.55;11.10;;;;;;;;;;4997819;28;20022;-79
2023/02/11 09:53:41;;;;;;;19.42;11.70;;;;;;;;;;4990543;28;20026;-81
2023/02/11 09:56:11;;;;;;;17.25;11.25;;;;;;;;;;4995160;28;20011;-75
2023/02/11 09:58:38;;;;;;;19.05;11.52;;;;;;;;;;4993766;28;20042;-73
2023/02/11 10:01:22;;;;;;;20.92;11.95;;;;;;;;;;4992291;28;20117;-74
2023/02/11 10:03:53;;;;;;;19.20;11.23;;;;;;;;;;4991975;28;20030;-74
2023/02/11 10:06:34;;;;;;;19.75;11.00;;;;;;;;;;4991598;28;20049;-73
2023/02/11 10:09:15;;;;;;;17.92;11.85;;;;;;;;;;4991638;28;20026;-70
2023/02/11 10:11:51;;;;;;;22.83;12.88;;;;;;;;;;4992130;28;20450;-71
2023/02/11 10:14:16;;;;;;;23.35;12.40;;;;;;;;;;4986817;28;20030;-72
2023/02/11 10:16:41;;;;;;;25.00;11.50;;;;;;;;;;4989188;28;20114;-73
2023/02/11 10:19:21;;;;;;;21.57;11.27;;;;;;;;;;4989907;28;20105;-74
2023/02/11 10:21:49;;;;;;;22.70;12.15;;;;;;;;;;4988095;28;20301;-75
2023/02/11 10:24:15;;;;;;;20.25;11.75;;;;;;;;;;4990735;28;20462;-73
2023/02/11 10:26:40;;;;;;;17.23;11.32;;;;;;;;;;4991450;28;20065;-76
2023/02/11 10:29:26;;;;;;;17.88;10.73;;;;;;;;;;4998392;28;20018;-75
2023/02/11 10:31:52;;;;;;;17.67;11.45;;;;;;;;;;4986972;28;20468;-76
2023/02/11 10:34:17;;;;;;;18.48;12.15;;;;;;;;;;4991465;28;20029;-74
2023/02/11 10:36:43;;;;;;;19.20;10.90;;;;;;;;;;4991443;28;20031;-77
2023/02/11 10:39:18;;;;;;;17.92;11.07;;;;;;;;;;4988825;28;20034;-75
2023/02/11 10:41:51;;;;;;;18.73;10.38;;;;;;;;;;4988479;28;20030;-76
2023/02/11 10:44:37;;;;;;;26.15;11.90;;;;;;;;;;4988792;28;20022;-76
2023/02/11 10:47:08;;;;;;;24.90;10.52;;;;;;;;;;4990916;28;20031;-77
2023/02/11 10:49:35;;;;;;;18.00;11.25;;;;;;;;;;4986722;28;20027;-74
2023/02/11 10:52:29;;;;;;;18.67;9.70;;;;;;;;;;4989057;28;20025;-73
2023/02/11 10:55:09;;;;;;;14.52;9.13;;;;;;;;;;4955910;28;20041;-76
2023/02/11 10:57:52;;;;;;;16.50;10.68;;;;;;;;;;4990061;28;20030;-75
2023/02/11 11:00:17;;;;;;;20.83;12.60;;;;;;;;;;4994021;28;20034;-75
2023/02/11 11:02:43;;;;;;;24.50;13.77;;;;;;;;;;4994724;28;20049;-76
2023/02/11 11:05:15;;;;;;;21.45;12.88;;;;;;;;;;4990973;28;20026;-75
2023/02/11 11:07:50;;;;;;;19.55;12.57;;;;;;;;;;4986542;28;20565;-76
2023/02/11 11:10:30;;;;;;;22.10;13.82;;;;;;;;;;4987187;28;20378;-73
2023/02/11 11:12:55;;;;;;;21.20;14.35;;;;;;;;;;4987460;28;20022;-69
2023/02/11 11:15:27;;;;;;;25.17;14.30;;;;;;;;;;4990380;28;20031;-70
2023/02/11 11:18:07;;;;;;;21.50;13.55;;;;;;;;;;4991197;28;20297;-69
2023/02/11 11:20:35;;;;;;;23.58;14.00;;;;;;;;;;4990279;28;20053;-70
2023/02/11 11:23:14;;;;;;;21.55;13.82;;;;;;;;;;4988779;28;20029;-69
2023/02/11 11:25:41;;;;;;;21.50;13.23;;;;;;;;;;4986157;28;20093;-70
2023/02/11 11:28:18;;;;;;;19.08;11.82;;;;;;;;;;4988503;28;20050;-69
2023/02/11 11:30:47;;;;;;;20.55;12.23;;;;;;;;;;4967602;28;20042;-81
2023/02/11 11:33:17;;;;;;;20.15;12.85;;;;;;;;;;4961293;28;20034;-68
2023/02/11 11:35:48;;;;;;;19.15;12.75;;;;;;;;;;4966187;28;20086;-70
2023/02/11 11:38:14;;;;;;;18.00;10.77;;;;;;;;;;4961361;28;20023;-69
2023/02/11 11:40:39;;;;;;;15.73;11.18;;;;;;;;;;4951075;28;20089;-71
2023/02/11 11:43:13;;;;;;;18.85;11.65;;;;;;;;;;4974773;28;20483;-68
2023/02/11 11:45:50;;;;;;;18.10;11.27;;;;;;;;;;4961406;28;20617;-69
2023/02/11 11:48:22;;;;;;;18.15;11.10;;;;;;;;;;4962640;28;20101;-71
2023/02/11 11:50:56;;;;;;;15.15;10.15;;;;;;;;;;4966233;28;20038;-73
2023/02/11 11:53:39;;;;;;;14.02;9.57;;;;;;;;;;4967269;28;20030;-73
2023/02/11 11:56:08;;;;;;;18.38;11.00;;;;;;;;;;4965821;28;20039;-73
2023/02/11 11:58:33;;;;;;;14.13;9.27;;;;;;;;;;4966939;28;20035;-72
2023/02/11 12:01:08;;;;;;;17.10;10.20;;;;;;;;;;4971639;28;20046;-73
2023/02/11 12:03:33;;;;;;;17.02;9.38;;;;;;;;;;4991823;28;20026;-71
2023/02/11 12:06:13;;;;;;;14.20;9.20;;;;;;;;;;4997180;28;20065;-73
2023/02/11 12:08:44;;;;;;;15.43;9.52;;;;;;;;;;4989617;28;20038;-68
2023/02/11 12:11:11;;;;;;;15.82;9.05;;;;;;;;;;4989177;28;20027;-68
2023/02/11 12:13:46;;;;;;;15.50;9.20;;;;;;;;;;4988661;28;20489;-70
2023/02/11 12:16:26;;;;;;;15.23;8.55;;;;;;;;;;4987566;28;20030;-68
2023/02/11 12:19:27;;;;;;;15.63;8.85;;;;;;;;;;4988349;28;20026;-68
2023/02/11 12:21:52;;;;;;;12.07;8.07;;;;;;;;;;4925930;29;20027;-70
2023/02/11 12:24:40;;;;;;;14.27;9.17;;;;;;;;;;4965505;28;20778;-76
2023/02/11 12:27:08;;;;;;;15.13;8.18;;;;;;;;;;4974274;28;20049;-70
2023/02/11 12:29:43;;;;;;;15.05;7.70;;;;;;;;;;4982490;28;20101;-68
2023/02/11 12:32:27;;;;;;;13.80;8.13;;;;;;;;;;4989036;28;20030;-70
2023/02/11 12:34:52;;;;;;;13.55;7.18;;;;;;;;;;4978590;28;20029;-69
2023/02/11 12:37:23;;;;;;;13.20;7.77;;;;;;;;;;4996705;28;20030;-71
2023/02/11 12:40:09;;;;;;;12.40;7.30;;;;;;;;;;4982628;28;20472;-70
2023/02/11 12:45:32;;;;;;;15.40;8.40;;;;;;;;;;4992542;28;20035;-69
2023/02/11 12:48:10;;;;;;;13.52;8.05;;;;;;;;;;4992664;28;20702;-70
2023/02/11 12:50:38;;;;;;;17.38;9.02;;;;;;;;;;4992010;28;20104;-71
2023/02/11 12:53:06;;;;;;;12.25;7.93;;;;;;;;;;4993190;28;20036;-69
2023/02/11 12:55:37;;;;;;;11.50;6.95;;;;;;;;;;4992491;28;20032;-70
2023/02/11 12:58:02;;;;;;;11.50;7.03;;;;;;;;;;4993348;28;20075;-73
2023/02/11 13:00:39;;;;;;;14.45;7.38;;;;;;;;;;4992199;28;20544;-81
2023/02/11 13:03:19;;;;;;;12.63;7.65;;;;;;;;;;4993600;28;20080;-80
2023/02/11 13:05:50;;;;;;;11.60;7.35;;;;;;;;;;4987852;28;20035;-75
2023/02/11 13:08:15;;;;;;;10.05;6.47;;;;;;;;;;4997313;28;20085;-75
2023/02/11 13:10:44;;;;;;;10.83;5.73;;;;;;;;;;4995615;28;20045;-75
2023/02/11 13:13:16;;;;;;;10.68;6.05;;;;;;;;;;4993410;28;20332;-74
2023/02/11 13:15:46;;;;;;;9.45;6.28;;;;;;;;;;4991919;28;20470;-74
2023/02/11 13:18:34;;;;;;;9.18;5.57;;;;;;;;;;4993069;28;20034;-75
2023/02/11 13:21:03;;;;;;;12.13;6.07;;;;;;;;;;4991684;28;20112;-81
2023/02/11 13:23:39;;;;;;;12.27;6.70;;;;;;;;;;4992932;28;20037;-75
2023/02/11 13:26:10;;;;;;;13.23;7.25;;;;;;;;;;4991135;28;20560;-76
2023/02/11 13:28:51;;;;;;;12.45;6.50;;;;;;;;;;4993150;28;20034;-74
2023/02/11 13:31:19;;;;;;;10.93;6.38;;;;;;;;;;4985950;28;20092;-75
2023/02/11 13:33:44;;;;;;;11.15;5.95;;;;;;;;;;4993039;28;20019;-71
2023/02/11 13:36:10;;;;;;;10.45;6.45;;;;;;;;;;4991676;28;20515;-73
2023/02/11 13:38:36;;;;;;;11.95;6.32;;;;;;;;;;4987836;28;20467;-80
2023/02/11 13:41:06;;;;;;;13.88;7.20;;;;;;;;;;4997419;28;20042;-80
2023/02/11 13:43:35;;;;;;;12.57;7.03;;;;;;;;;;4988845;28;20026;-83
2023/02/11 13:46:03;;;;;;;13.52;7.88;;;;;;;;;;4990858;28;20072;-78
2023/02/11 13:48:30;;;;;;;14.10;8.15;;;;;;;;;;4991264;28;20151;-79
2023/02/11 13:51:00;;;;;;;13.80;8.73;;;;;;;;;;4982576;28;20030;-80
2023/02/11 13:53:26;;;;;;;17.17;9.32;;;;;;;;;;4992718;28;20022;-80
2023/02/11 13:56:02;;;;;;;16.35;10.60;;;;;;;;;;4990684;28;20050;-70
2023/02/11 13:58:27;;;;;;;21.08;9.93;;;;;;;;;;4988739;28;20031;-68
2023/02/11 14:00:53;;;;;;;22.43;12.83;;;;;;;;;;4990401;28;20069;-69
2023/02/11 14:09:06;;;;;;;24.67;12.50;;;;;;;;;;4990962;28;20034;-68
2023/02/11 14:11:31;;;;;;;22.15;11.68;;;;;;;;;;4992438;28;20042;-69
2023/02/11 14:14:13;;;;;;;23.47;13.10;;;;;;;;;;4996859;28;20413;-73
2023/02/11 14:16:57;;;;;;;20.88;12.77;;;;;;;;;;4985664;28;20069;-81
2023/02/11 14:19:32;;;;;;;18.02;10.85;;;;;;;;;;4984847;28;20117;-71
2023/02/11 14:22:16;;;;;;;21.33;12.02;;;;;;;;;;4989108;28;20121;-68
2023/02/11 14:24:46;;;;;;;17.33;10.43;;;;;;;;;;4979548;28;20023;-69
2023/02/11 14:27:24;;;;;;;20.55;11.38;;;;;;;;;;4991488;28;20022;-69
2023/02/11 14:30:13;;;;;;;21.23;11.82;;;;;;;;;;4989844;28;20445;-69
2023/02/11 14:32:59;;;;;;;19.40;11.77;;;;;;;;;;4989375;28;20057;-71
2023/02/11 14:35:38;;;;;;;17.13;10.48;;;;;;;;;;4990333;28;20109;-73
2023/02/11 14:38:19;;;;;;;18.00;12.30;;;;;;;;;;4987745;28;20045;-80
2023/02/11 14:41:13;;;;;;;17.48;11.43;;;;;;;;;;4983783;28;20093;-82